createdAt,value
2019-03-13T00:02:05.475Z,0.70
2019-03-13T00:07:07.759Z,0.93
2019-03-13T00:12:09.951Z,0.50
2019-03-13T00:17:12.142Z,0.50
2019-03-13T00:22:14.331Z,0.50
2019-03-13T00:27:16.530Z,0.47
2019-03-13T00:32:18.712Z,1.15
2019-03-13T00:37:20.887Z,0.77
2019-03-13T00:42:23.077Z,0.80
2019-03-13T00:47:25.242Z,1.60
2019-03-13T00:52:27.432Z,0.40
2019-03-13T00:57:29.618Z,0.60
2019-03-13T01:02:33.444Z,1.57
2019-03-13T01:07:35.649Z,0.63
2019-03-13T01:12:37.819Z,0.60
2019-03-13T01:17:39.991Z,1.05
2019-03-13T01:22:42.168Z,1.03
2019-03-13T01:27:44.362Z,0.60
2019-03-13T01:32:50.972Z,0.70
2019-03-13T01:37:53.202Z,1.30
2019-03-13T01:42:55.401Z,1.50
2019-03-13T01:47:57.590Z,0.87
2019-03-13T01:52:59.774Z,1.03
2019-03-13T01:58:01.987Z,1.50
2019-03-13T02:03:04.293Z,1.53
2019-03-13T02:08:06.459Z,1.87
2019-03-13T02:13:08.668Z,2.13
2019-03-13T02:18:10.878Z,0.70
2019-03-13T02:23:13.071Z,0.65
2019-03-13T02:28:15.550Z,2.03
2019-03-13T02:33:17.723Z,0.97
2019-03-13T02:38:19.918Z,1.33
2019-03-13T02:43:22.095Z,1.10
2019-03-13T02:48:24.270Z,2.40
2019-03-13T02:53:26.466Z,2.05
2019-03-13T02:58:28.653Z,1.73
2019-03-13T03:03:32.507Z,2.03
2019-03-13T03:08:34.713Z,1.70
2019-03-13T03:13:36.900Z,1.73
2019-03-13T03:18:39.073Z,2.97
2019-03-13T03:23:44.985Z,1.80
2019-03-13T03:28:45.502Z,2.90
2019-03-13T03:33:57.798Z,3.77
2019-03-13T03:39:00.123Z,1.93
2019-03-13T03:44:02.369Z,2.43
2019-03-13T03:49:04.701Z,1.70
2019-03-13T03:54:06.941Z,4.40
2019-03-13T03:59:09.119Z,2.13
2019-03-13T04:04:11.291Z,2.83
2019-03-13T04:09:13.487Z,3.77
2019-03-13T04:14:15.714Z,2.90
2019-03-13T04:19:17.929Z,3.40
2019-03-13T04:24:20.121Z,5.97
2019-03-13T04:29:22.273Z,2.40
2019-03-13T04:34:24.451Z,2.17
2019-03-13T04:39:26.623Z,2.20
2019-03-13T04:44:28.786Z,3.43
2019-03-13T04:49:30.988Z,4.37
2019-03-13T04:54:33.162Z,2.33
2019-03-13T04:59:35.400Z,2.23
2019-03-13T05:04:37.833Z,4.67
2019-03-13T05:09:40.012Z,3.17
2019-03-13T05:14:42.211Z,3.07
2019-03-13T05:19:44.387Z,2.53
2019-03-13T05:24:46.543Z,1.03
2019-03-13T05:29:48.733Z,3.30
2019-03-13T05:34:51.363Z,1.80
2019-03-13T05:39:53.552Z,2.77
2019-03-13T05:44:55.758Z,2.87
2019-03-13T05:49:58.024Z,3.67
2019-03-13T05:55:00.368Z,2.87
2019-03-13T06:00:03.893Z,2.50
2019-03-13T06:05:07.023Z,5.60
2019-03-13T06:10:10.387Z,3.67
2019-03-13T06:15:13.259Z,3.67
2019-03-13T06:20:15.897Z,3.12
2019-03-13T06:25:18.108Z,3.17
2019-03-13T06:30:20.665Z,4.57
2019-03-13T06:35:23.932Z,3.23
2019-03-13T06:40:26.235Z,3.70
2019-03-13T06:45:28.413Z,2.20
2019-03-13T06:50:30.589Z,5.30
2019-03-13T06:55:32.755Z,4.60
2019-03-13T07:00:48.360Z,4.72
2019-03-13T07:06:08.585Z,3.58
2019-03-13T07:11:18.435Z,5.03
2019-03-13T07:16:34.125Z,4.17
2019-03-13T07:21:40.859Z,6.97
2019-03-13T07:26:54.364Z,10.75
2019-03-13T07:32:04.483Z,5.37
2019-03-13T07:37:08.319Z,6.40
2019-03-13T07:42:12.150Z,4.83
2019-03-13T07:47:18.639Z,3.10
2019-03-13T07:52:25.275Z,4.70
2019-03-13T07:57:45.517Z,6.65
2019-03-13T08:02:55.200Z,6.97
2019-03-13T08:07:59.048Z,5.43
2019-03-13T08:13:02.877Z,10.33
2019-03-13T08:18:06.739Z,4.17
2019-03-13T08:23:10.574Z,4.70
2019-03-13T08:28:14.406Z,8.43
2019-03-13T08:33:18.245Z,5.43
2019-03-13T08:38:22.087Z,4.53
2019-03-13T08:43:42.270Z,8.70
2019-03-13T08:48:52.191Z,4.27
2019-03-13T08:53:56.399Z,7.37
2019-03-13T08:59:03.443Z,4.73
2019-03-13T09:09:27.718Z,6.07
2019-03-13T09:14:37.679Z,3.37
2019-03-13T09:19:47.319Z,3.70
2019-03-13T09:25:12.461Z,5.70
2019-03-13T09:30:28.097Z,3.63
2019-03-13T09:35:41.065Z,9.60
2019-03-13T09:40:50.877Z,4.87
2019-03-13T09:46:11.108Z,4.40
2019-03-13T09:51:14.929Z,5.60
2019-03-13T09:56:21.677Z,4.90
2019-03-13T10:06:34.796Z,6.50
2019-03-13T10:11:47.768Z,6.57
2019-03-13T10:17:11.351Z,5.77
2019-03-13T10:22:15.419Z,5.87
2019-03-13T10:27:31.038Z,8.80
2019-03-13T10:32:49.908Z,8.57
2019-03-13T10:37:56.481Z,5.77
2019-03-13T10:43:12.478Z,4.55
2019-03-13T10:48:19.113Z,4.07
2019-03-13T10:53:26.432Z,6.35
2019-03-13T10:58:30.372Z,7.23
2019-03-13T11:03:43.421Z,5.50
2019-03-13T11:08:52.851Z,7.77
2019-03-13T11:14:15.993Z,6.27
2019-03-13T11:19:21.078Z,11.10
2019-03-13T11:24:27.919Z,10.48
2019-03-13T11:29:37.675Z,10.48
2019-03-13T11:34:58.254Z,10.77
2019-03-13T11:40:02.129Z,6.03
2019-03-13T11:45:19.125Z,6.73
2019-03-13T11:50:22.968Z,15.83
2019-03-13T11:55:44.764Z,4.53
2019-03-13T12:01:05.418Z,8.47
2019-03-13T12:06:25.467Z,11.10
2019-03-13T12:11:30.223Z,7.67
2019-03-13T12:16:37.130Z,12.70
2019-03-13T12:21:46.871Z,10.55
2019-03-13T12:27:06.167Z,8.38
2019-03-13T12:32:15.975Z,8.53
2019-03-13T12:37:19.829Z,6.63
2019-03-13T12:42:41.090Z,5.97
2019-03-13T12:47:49.055Z,10.33
2019-03-13T12:52:52.954Z,13.50
2019-03-13T12:58:06.327Z,6.23
2019-03-13T13:03:12.989Z,7.57
2019-03-13T13:08:19.877Z,6.42
2019-03-13T13:13:40.104Z,17.67
2019-03-13T13:18:54.253Z,14.33
2019-03-13T13:23:56.809Z,7.97
2019-03-13T13:28:59.013Z,6.73
2019-03-13T13:34:01.289Z,10.47
2019-03-13T13:39:04.538Z,3.23
2019-03-13T13:44:07.230Z,6.07
2019-03-13T13:49:09.409Z,6.73
2019-03-13T13:54:11.619Z,7.70
2019-03-13T13:59:13.812Z,6.40
2019-03-13T14:04:16.064Z,6.57
2019-03-13T14:09:18.284Z,4.97
2019-03-13T14:14:20.463Z,4.53
2019-03-13T14:19:22.702Z,10.57
2019-03-13T14:24:25.308Z,6.57
2019-03-13T14:29:27.531Z,11.70
2019-03-13T14:34:29.711Z,7.40
2019-03-13T14:39:31.970Z,5.12
2019-03-13T14:44:34.178Z,14.20
2019-03-13T14:49:36.376Z,13.03
2019-03-13T14:54:38.564Z,15.23
2019-03-13T14:59:40.811Z,6.70
2019-03-13T15:04:43.049Z,15.57
2019-03-13T15:09:45.246Z,6.63
2019-03-13T15:14:47.454Z,10.23
2019-03-13T15:19:50.026Z,11.83
2019-03-13T15:24:52.234Z,9.73
2019-03-13T15:29:54.423Z,7.30
2019-03-13T15:34:57.149Z,7.57
2019-03-13T15:39:59.341Z,10.43
2019-03-13T15:45:01.656Z,10.23
2019-03-13T15:50:04.825Z,7.37
2019-03-13T15:55:10.009Z,6.97
2019-03-13T16:00:13.641Z,6.97
2019-03-13T16:05:15.839Z,5.40
2019-03-13T16:10:18.409Z,10.20
2019-03-13T16:15:22.184Z,6.67
2019-03-13T16:20:24.372Z,9.63
2019-03-13T16:25:26.564Z,5.73
2019-03-13T16:30:36.797Z,6.47
2019-03-13T16:35:39.044Z,6.57
2019-03-13T16:40:41.289Z,11.73
2019-03-13T16:45:43.557Z,11.33
2019-03-13T16:50:45.746Z,8.17
2019-03-13T16:55:47.965Z,7.27
2019-03-13T17:00:50.730Z,14.37
2019-03-13T17:05:53.306Z,9.70
2019-03-13T17:10:55.558Z,9.93
2019-03-13T17:15:57.793Z,10.87
2019-03-13T17:20:59.993Z,11.63
2019-03-13T17:26:02.168Z,8.50
2019-03-13T17:31:04.322Z,9.08
2019-03-13T17:36:06.564Z,9.27
2019-03-13T17:41:08.817Z,8.03
2019-03-13T17:46:11.019Z,7.40
2019-03-13T17:51:13.374Z,9.63
2019-03-13T17:56:15.657Z,7.83
2019-03-13T18:01:17.878Z,9.77
2019-03-13T18:06:20.086Z,9.10
2019-03-13T18:11:22.982Z,9.13
2019-03-13T18:16:25.225Z,7.70
2019-03-13T18:21:27.519Z,6.50
2019-03-13T18:26:29.759Z,6.60
2019-03-13T18:31:31.954Z,6.27
2019-03-13T18:36:34.248Z,7.07
2019-03-13T18:41:36.534Z,5.95
2019-03-13T18:46:38.997Z,7.70
2019-03-13T18:51:41.621Z,8.07
2019-03-13T18:56:43.846Z,5.67
2019-03-13T19:01:46.472Z,4.87
2019-03-13T19:06:48.799Z,5.20
2019-03-13T19:11:51.014Z,9.37
2019-03-13T19:16:53.301Z,5.08
2019-03-13T19:21:55.574Z,7.60
2019-03-13T19:26:58.164Z,3.43
2019-03-13T19:32:00.428Z,7.53
2019-03-13T19:37:02.710Z,5.50
2019-03-13T19:42:05.049Z,6.67
2019-03-13T19:47:07.679Z,4.57
2019-03-13T19:52:09.970Z,3.07
2019-03-13T19:57:12.191Z,5.67
2019-03-13T20:02:14.418Z,5.03
2019-03-13T20:07:16.657Z,6.90
2019-03-13T20:12:18.906Z,4.70
2019-03-13T20:17:21.457Z,4.87
2019-03-13T20:22:23.755Z,4.97
2019-03-13T20:27:26.187Z,6.43
2019-03-13T20:32:28.508Z,6.53
2019-03-13T20:37:30.745Z,11.60
2019-03-13T20:42:33.059Z,11.00
2019-03-13T20:47:35.507Z,7.77
2019-03-13T20:52:37.699Z,8.13
2019-03-13T20:57:39.935Z,12.43
2019-03-13T21:02:42.584Z,7.83
2019-03-13T21:07:45.946Z,10.15
2019-03-13T21:12:48.195Z,8.67
2019-03-13T21:17:50.407Z,8.80
2019-03-13T21:22:52.637Z,9.70
2019-03-13T21:27:54.936Z,10.80
2019-03-13T21:32:57.439Z,11.40
2019-03-13T21:37:59.782Z,8.40
2019-03-13T21:43:02.740Z,8.50
2019-03-13T21:48:05.046Z,9.30
2019-03-13T21:53:07.711Z,10.90
2019-03-13T21:58:09.918Z,8.73
2019-03-13T22:03:12.159Z,6.90
2019-03-13T22:08:14.702Z,9.03
2019-03-13T22:13:16.947Z,8.40
2019-03-13T22:18:19.186Z,9.37
2019-03-13T22:23:21.901Z,10.75
2019-03-13T22:28:24.126Z,7.53
2019-03-13T22:33:26.659Z,9.90
2019-03-13T22:38:28.810Z,5.90
2019-03-13T22:43:31.184Z,6.03
2019-03-13T22:48:33.466Z,6.67
2019-03-13T22:53:35.656Z,6.83
2019-03-13T22:58:37.852Z,7.75
2019-03-13T23:03:40.757Z,6.20
2019-03-13T23:08:43.328Z,9.35
2019-03-13T23:13:45.599Z,7.17
2019-03-13T23:18:47.796Z,9.47
2019-03-13T23:23:49.972Z,6.20
2019-03-13T23:28:52.184Z,3.63
2019-03-13T23:33:54.444Z,7.27
2019-03-13T23:38:56.707Z,3.47
2019-03-13T23:43:59.119Z,5.20
2019-03-13T23:49:01.308Z,7.57
2019-03-13T23:54:03.540Z,5.63
2019-03-13T23:59:05.788Z,6.07
